Time;durP1;ratioP1;P1;durP2;ratioP2;P2;SDS_P1;SDS_P2;PMS_P1;PMS_P2;Temp;Humidity;BMP_temperature;BMP_pressure;BME280_temperature;BME280_humidity;BME280_pressure;Samples;Min_cycle;Max_cycle;Signal;HPM_P1;HPM_P2
2022/03/18 00:00:14;;;;;;;;;;;20.10;38.60;;;;;;5042386;28;20009;-46
2022/03/18 00:02:42;;;;;;;;;;;20.10;38.60;;;;;;5051596;28;19925;-47
2022/03/18 00:05:09;;;;;;;;;;;20.00;38.60;;;;;;5045479;28;19920;-44
2022/03/18 00:07:36;;;;;;;;;;;20.10;38.60;;;;;;5049690;28;20320;-45
2022/03/18 00:10:03;;;;;;;;;;;20.10;38.60;;;;;;5066765;28;20254;-44
2022/03/18 00:12:29;;;;;;;;;;;20.10;38.60;;;;;;5042780;28;19925;-50
2022/03/18 00:14:56;;;;;;;;;;;20.10;38.70;;;;;;5049509;28;19927;-48
2022/03/18 00:17:25;;;;;;;;;;;20.10;38.70;;;;;;5044059;28;20415;-48
2022/03/18 00:19:54;;;;;;;;;;;20.10;38.70;;;;;;5054964;28;20024;-47
2022/03/18 00:22:20;;;;;;;;;;;20.10;38.70;;;;;;5075403;28;19925;-50
2022/03/18 00:24:47;;;;;;;;;;;20.10;38.70;;;;;;5053084;28;19947;-45
2022/03/18 00:27:14;;;;;;;;;;;20.10;38.70;;;;;;5067128;28;19920;-45
2022/03/18 00:29:41;;;;;;;;;;;20.10;38.80;;;;;;5066396;28;19932;-43
2022/03/18 00:32:08;;;;;;;;;;;20.10;38.80;;;;;;5038323;28;19921;-49
2022/03/18 00:34:35;;;;;;;;;;;20.10;38.80;;;;;;5070012;28;20049;-47
2022/03/18 00:37:03;;;;;;;;;;;20.10;38.80;;;;;;5038153;28;19928;-44
2022/03/18 00:39:30;;;;;;;;;;;20.10;38.80;;;;;;5038643;28;19926;-47
2022/03/18 00:41:57;;;;;;;;;;;20.10;38.80;;;;;;5047622;28;20019;-48
2022/03/18 00:44:25;;;;;;;;;;;20.10;38.80;;;;;;5056152;28;19920;-49
2022/03/18 00:46:52;;;;;;;;;;;20.10;38.80;;;;;;5051304;28;19932;-47
2022/03/18 00:52:05;;;;;;;;;;;20.10;38.90;;;;;;5063991;28;19921;-44
2022/03/18 00:54:35;;;;;;;;;;;20.10;38.90;;;;;;5049723;28;19978;-51
2022/03/18 00:57:02;;;;;;;;;;;20.10;38.90;;;;;;5060042;28;20304;-43
2022/03/18 00:59:29;;;;;;;;;;;20.10;38.90;;;;;;5068441;28;19921;-50
2022/03/18 01:01:56;;;;;;;;;;;20.10;38.90;;;;;;5081270;28;19970;-44
2022/03/18 01:04:25;;;;;;;;;;;20.10;38.90;;;;;;5042631;28;19921;-47
2022/03/18 01:06:52;;;;;;;;;;;20.10;38.90;;;;;;5039221;28;19925;-45
2022/03/18 01:09:21;;;;;;;;;;;20.10;38.90;;;;;;5029105;28;20019;-46
2022/03/18 01:11:48;;;;;;;;;;;20.10;39.00;;;;;;5050975;28;19920;-45
2022/03/18 01:14:15;;;;;;;;;;;20.10;39.00;;;;;;5048806;28;19924;-43
2022/03/18 01:16:42;;;;;;;;;;;20.10;39.00;;;;;;5067292;28;20019;-43
2022/03/18 01:19:09;;;;;;;;;;;20.10;39.00;;;;;;5037780;28;20393;-49
2022/03/18 01:21:36;;;;;;;;;;;20.10;39.00;;;;;;5039211;28;19931;-45
2022/03/18 01:24:04;;;;;;;;;;;20.10;39.00;;;;;;5068453;28;20043;-45
2022/03/18 01:26:32;;;;;;;;;;;20.10;39.00;;;;;;5067954;28;19920;-45
2022/03/18 01:28:59;;;;;;;;;;;20.10;39.00;;;;;;5053606;28;19920;-48
2022/03/18 01:31:26;;;;;;;;;;;20.10;39.00;;;;;;5065354;28;19920;-48
2022/03/18 01:33:53;;;;;;;;;;;20.10;39.00;;;;;;5051230;28;19930;-49
2022/03/18 01:36:20;;;;;;;;;;;20.10;39.10;;;;;;5045731;28;20423;-44
2022/03/18 01:38:46;;;;;;;;;;;20.10;39.00;;;;;;5053091;28;19924;-44
2022/03/18 01:41:13;;;;;;;;;;;20.10;39.00;;;;;;5063608;28;19925;-46
2022/03/18 01:43:42;;;;;;;;;;;20.10;39.00;;;;;;5056966;28;20431;-43
2022/03/18 01:46:09;;;;;;;;;;;20.10;39.00;;;;;;5050350;28;19924;-44
2022/03/18 01:48:36;;;;;;;;;;;20.10;39.00;;;;;;5044917;28;19925;-43
2022/03/18 01:51:03;;;;;;;;;;;20.10;39.10;;;;;;5045942;28;19924;-48
2022/03/18 01:53:30;;;;;;;;;;;20.10;39.10;;;;;;5045192;28;19932;-46
2022/03/18 01:55:57;;;;;;;;;;;20.10;39.10;;;;;;5045025;28;19921;-45
2022/03/18 01:58:24;;;;;;;;;;;20.10;39.10;;;;;;5061686;28;19994;-44
2022/03/18 02:00:52;;;;;;;;;;;20.10;39.10;;;;;;5043644;28;19985;-48
2022/03/18 02:03:19;;;;;;;;;;;20.10;39.10;;;;;;5051789;28;19970;-46
2022/03/18 02:05:45;;;;;;;;;;;20.10;39.10;;;;;;5056029;28;19989;-45
2022/03/18 02:08:12;;;;;;;;;;;20.10;39.10;;;;;;5054696;28;19970;-45
2022/03/18 02:10:39;;;;;;;;;;;20.10;39.10;;;;;;5051395;28;20433;-46
2022/03/18 02:13:06;;;;;;;;;;;20.10;39.10;;;;;;5042520;28;19924;-46
2022/03/18 02:15:32;;;;;;;;;;;20.10;39.20;;;;;;5045130;28;20495;-47
2022/03/18 02:18:01;;;;;;;;;;;20.10;39.10;;;;;;5033052;28;19925;-44
2022/03/18 02:20:27;;;;;;;;;;;20.10;39.10;;;;;;5056960;28;19979;-45
2022/03/18 02:22:56;;;;;;;;;;;20.10;39.10;;;;;;5049329;28;19936;-47
2022/03/18 02:25:23;;;;;;;;;;;20.10;39.10;;;;;;5045169;28;19936;-44
2022/03/18 02:27:56;;;;;;;;;;;20.10;39.10;;;;;;5046295;28;19924;-45
2022/03/18 02:30:23;;;;;;;;;;;20.10;39.20;;;;;;5061833;28;19926;-44
2022/03/18 02:32:49;;;;;;;;;;;20.10;39.10;;;;;;5042468;28;19928;-46
2022/03/18 02:35:16;;;;;;;;;;;20.10;39.20;;;;;;5037795;28;19925;-49
2022/03/18 02:37:43;;;;;;;;;;;20.10;39.20;;;;;;5075909;28;20403;-45
2022/03/18 02:40:12;;;;;;;;;;;20.10;39.20;;;;;;5065116;28;20285;-44
2022/03/18 02:42:39;;;;;;;;;;;20.10;39.20;;;;;;5037858;28;20366;-44
2022/03/18 02:45:33;;;;;;;;;;;20.10;39.20;;;;;;5092798;27;19917;-44
2022/03/18 02:47:59;;;;;;;;;;;20.10;39.20;;;;;;5120503;27;19921;-45
2022/03/18 02:50:26;;;;;;;;;;;20.10;39.20;;;;;;5087485;28;20369;-47
2022/03/18 02:52:53;;;;;;;;;;;20.10;39.20;;;;;;5087589;28;19931;-46
2022/03/18 02:55:21;;;;;;;;;;;20.10;39.20;;;;;;5081759;28;19921;-42
2022/03/18 02:57:47;;;;;;;;;;;20.10;39.20;;;;;;5083850;28;20464;-44
2022/03/18 03:00:16;;;;;;;;;;;20.10;39.20;;;;;;5085287;28;19966;-44
2022/03/18 03:02:44;;;;;;;;;;;20.10;39.20;;;;;;5093299;28;20017;-44
2022/03/18 03:08:01;;;;;;;;;;;20.10;39.20;;;;;;5084294;28;19928;-42
2022/03/18 03:10:29;;;;;;;;;;;20.10;39.20;;;;;;5113256;28;19975;-43
2022/03/18 03:12:56;;;;;;;;;;;20.10;39.20;;;;;;5075032;28;19967;-45
2022/03/18 03:15:23;;;;;;;;;;;20.10;39.30;;;;;;5109416;28;19924;-44
2022/03/18 03:17:51;;;;;;;;;;;20.10;39.30;;;;;;5085212;28;19955;-46
2022/03/18 03:20:18;;;;;;;;;;;20.10;39.30;;;;;;5086709;28;19920;-47
2022/03/18 03:22:45;;;;;;;;;;;20.10;39.30;;;;;;5089499;28;19947;-43
2022/03/18 03:25:12;;;;;;;;;;;20.10;39.30;;;;;;5115465;28;19970;-43
2022/03/18 03:27:39;;;;;;;;;;;20.10;39.30;;;;;;5084551;28;19956;-44
2022/03/18 03:30:06;;;;;;;;;;;20.10;39.30;;;;;;5081908;28;19920;-47
2022/03/18 03:32:33;;;;;;;;;;;20.10;39.30;;;;;;5087458;28;19921;-46
2022/03/18 03:35:01;;;;;;;;;;;20.10;39.30;;;;;;5081746;28;20095;-45
2022/03/18 03:37:28;;;;;;;;;;;20.10;39.30;;;;;;5085860;28;20027;-46
2022/03/18 03:39:55;;;;;;;;;;;20.10;39.30;;;;;;5085602;28;19925;-48
2022/03/18 03:42:22;;;;;;;;;;;20.10;39.30;;;;;;5085003;28;20024;-47
2022/03/18 03:44:49;;;;;;;;;;;20.20;39.50;;;;;;5084048;28;19967;-42
2022/03/18 03:47:16;;;;;;;;;;;20.10;39.30;;;;;;5083394;28;19928;-45
2022/03/18 03:49:44;;;;;;;;;;;20.10;39.30;;;;;;5084663;28;19920;-44
2022/03/18 03:52:12;;;;;;;;;;;20.20;39.50;;;;;;5083664;28;19932;-43
2022/03/18 03:54:40;;;;;;;;;;;20.10;39.30;;;;;;5082602;28;20421;-43
2022/03/18 03:57:07;;;;;;;;;;;20.10;39.40;;;;;;5066217;28;19920;-46
2022/03/18 03:59:33;;;;;;;;;;;20.20;39.50;;;;;;5093996;28;19920;-44
2022/03/18 04:02:02;;;;;;;;;;;20.10;39.40;;;;;;5064514;28;19927;-44
2022/03/18 04:04:31;;;;;;;;;;;20.10;39.40;;;;;;5069340;28;19924;-45
2022/03/18 04:06:57;;;;;;;;;;;20.10;39.40;;;;;;5070773;28;20074;-43
2022/03/18 04:09:25;;;;;;;;;;;20.10;39.40;;;;;;5072003;28;19932;-42
2022/03/18 04:11:52;;;;;;;;;;;20.20;39.50;;;;;;5069316;28;19931;-43
2022/03/18 04:14:20;;;;;;;;;;;20.20;39.50;;;;;;5090939;28;19921;-44
2022/03/18 04:16:47;;;;;;;;;;;20.20;39.50;;;;;;5068550;28;19991;-43
2022/03/18 04:19:13;;;;;;;;;;;20.10;39.40;;;;;;5069929;28;19924;-44
2022/03/18 04:21:41;;;;;;;;;;;20.10;39.40;;;;;;5069634;28;19920;-43
2022/03/18 04:24:08;;;;;;;;;;;20.20;39.50;;;;;;5068369;28;19920;-45
2022/03/18 04:26:36;;;;;;;;;;;20.10;39.40;;;;;;5066362;28;19936;-45
2022/03/18 04:29:02;;;;;;;;;;;20.10;39.40;;;;;;5099777;28;19920;-42
2022/03/18 04:31:29;;;;;;;;;;;20.20;39.50;;;;;;5069150;28;19943;-44
2022/03/18 04:33:56;;;;;;;;;;;20.10;39.40;;;;;;5068763;28;19947;-45
2022/03/18 04:36:23;;;;;;;;;;;20.10;39.40;;;;;;5071630;28;19927;-43
2022/03/18 04:38:50;;;;;;;;;;;20.10;39.40;;;;;;5071992;28;19964;-44
2022/03/18 04:41:17;;;;;;;;;;;20.10;39.40;;;;;;5071418;28;19924;-42
2022/03/18 04:43:45;;;;;;;;;;;20.10;39.40;;;;;;5073798;28;20232;-42
2022/03/18 04:46:12;;;;;;;;;;;20.20;39.50;;;;;;5073419;28;19920;-43
2022/03/18 04:48:39;;;;;;;;;;;20.10;39.40;;;;;;5070965;28;20004;-44
2022/03/18 04:51:06;;;;;;;;;;;20.10;39.40;;;;;;5070713;28;20273;-44
2022/03/18 04:53:32;;;;;;;;;;;20.20;39.50;;;;;;5072023;28;19963;-44
2022/03/18 04:55:59;;;;;;;;;;;20.10;39.50;;;;;;5094275;28;19924;-44
2022/03/18 04:58:26;;;;;;;;;;;20.10;39.50;;;;;;5069067;28;20374;-46
2022/03/18 05:00:54;;;;;;;;;;;20.10;39.50;;;;;;5097941;28;20019;-47
2022/03/18 05:03:21;;;;;;;;;;;20.10;39.50;;;;;;5066997;28;19928;-46
2022/03/18 05:05:47;;;;;;;;;;;20.10;39.50;;;;;;5069440;28;19920;-43
2022/03/18 05:08:14;;;;;;;;;;;20.10;39.50;;;;;;5065614;28;19929;-44
2022/03/18 05:10:41;;;;;;;;;;;20.10;39.50;;;;;;5068975;28;19984;-43
2022/03/18 05:13:08;;;;;;;;;;;20.10;39.50;;;;;;5070400;28;19925;-45
2022/03/18 05:15:34;;;;;;;;;;;20.10;39.50;;;;;;5067947;28;19931;-42
2022/03/18 05:18:03;;;;;;;;;;;20.10;39.50;;;;;;5068402;28;20094;-42
2022/03/18 05:20:30;;;;;;;;;;;20.10;39.50;;;;;;5092631;28;19980;-47
2022/03/18 05:22:57;;;;;;;;;;;20.10;39.50;;;;;;5097706;28;20025;-42
2022/03/18 05:25:24;;;;;;;;;;;20.10;39.50;;;;;;5066916;28;19920;-44
2022/03/18 05:27:51;;;;;;;;;;;20.10;39.50;;;;;;5070570;28;19969;-45
2022/03/18 05:30:18;;;;;;;;;;;20.10;39.50;;;;;;5068176;28;19970;-42
2022/03/18 05:32:45;;;;;;;;;;;20.20;39.60;;;;;;5066524;28;19932;-45
2022/03/18 05:35:16;;;;;;;;;;;20.20;39.60;;;;;;5068286;28;20017;-42
2022/03/18 05:37:43;;;;;;;;;;;20.20;39.60;;;;;;5068854;28;19970;-44
2022/03/18 05:40:10;;;;;;;;;;;20.10;39.50;;;;;;5068144;28;19932;-45
2022/03/18 05:42:37;;;;;;;;;;;20.10;39.50;;;;;;5068751;28;19920;-42
2022/03/18 05:45:04;;;;;;;;;;;20.10;39.50;;;;;;5070560;28;19956;-42
2022/03/18 05:47:31;;;;;;;;;;;20.20;39.60;;;;;;5068671;28;19950;-44
2022/03/18 05:49:58;;;;;;;;;;;20.20;39.60;;;;;;5067466;28;19959;-44
2022/03/18 05:52:26;;;;;;;;;;;20.10;40.10;;;;;;5068134;28;19924;-47
2022/03/18 05:54:53;;;;;;;;;;;20.20;39.60;;;;;;5069215;28;20307;-44
2022/03/18 05:57:19;;;;;;;;;;;20.20;39.60;;;;;;5068816;28;19925;-46
2022/03/18 05:59:46;;;;;;;;;;;20.10;39.50;;;;;;5067679;28;19938;-46
2022/03/18 06:02:12;;;;;;;;;;;20.20;39.60;;;;;;5069989;28;20382;-43
2022/03/18 06:04:39;;;;;;;;;;;20.20;39.60;;;;;;5069806;28;20023;-43
2022/03/18 06:07:06;;;;;;;;;;;20.20;39.60;;;;;;5069083;28;19932;-44
2022/03/18 06:12:19;;;;;;;;;;;20.20;39.60;;;;;;5068492;28;19969;-42
2022/03/18 06:14:46;;;;;;;;;;;20.20;39.60;;;;;;5070101;28;20348;-43
2022/03/18 06:17:12;;;;;;;;;;;20.20;39.60;;;;;;5099134;28;19927;-44
2022/03/18 06:19:39;;;;;;;;;;;20.20;39.60;;;;;;5069052;28;20016;-43
2022/03/18 06:22:07;;;;;;;;;;;20.20;39.60;;;;;;5065444;28;20377;-46
2022/03/18 06:24:35;;;;;;;;;;;20.20;39.60;;;;;;5069236;28;20354;-43
2022/03/18 06:27:02;;;;;;;;;;;20.20;39.60;;;;;;5070354;28;20269;-43
2022/03/18 06:29:29;;;;;;;;;;;20.20;39.60;;;;;;5069477;28;19924;-44
2022/03/18 06:31:56;;;;;;;;;;;20.20;39.60;;;;;;5062669;28;19929;-42
2022/03/18 06:34:23;;;;;;;;;;;20.20;39.60;;;;;;5069248;28;19925;-43
2022/03/18 06:36:50;;;;;;;;;;;20.20;39.60;;;;;;5066816;28;19929;-45
2022/03/18 06:39:17;;;;;;;;;;;20.20;39.60;;;;;;5062956;28;20270;-47
2022/03/18 06:41:46;;;;;;;;;;;20.20;39.60;;;;;;5062559;28;19994;-49
2022/03/18 06:44:12;;;;;;;;;;;20.20;39.60;;;;;;5064711;28;19924;-42
2022/03/18 06:46:39;;;;;;;;;;;20.20;39.60;;;;;;5066833;28;19948;-49
2022/03/18 06:49:06;;;;;;;;;;;20.20;39.60;;;;;;5065907;28;19970;-42
2022/03/18 06:51:33;;;;;;;;;;;20.20;39.60;;;;;;5063421;28;19943;-44
2022/03/18 06:53:59;;;;;;;;;;;20.20;39.60;;;;;;5067246;28;19924;-44
2022/03/18 06:56:27;;;;;;;;;;;20.20;39.70;;;;;;5068028;28;19925;-45
2022/03/18 06:58:55;;;;;;;;;;;20.20;39.60;;;;;;5067654;28;19967;-43
2022/03/18 07:01:22;;;;;;;;;;;20.20;39.60;;;;;;5074543;28;19927;-43
2022/03/18 07:03:49;;;;;;;;;;;20.20;39.60;;;;;;5064963;28;20335;-43
2022/03/18 07:06:15;;;;;;;;;;;20.20;39.60;;;;;;5066736;28;19953;-44
2022/03/18 07:08:42;;;;;;;;;;;20.20;39.60;;;;;;5066059;28;19977;-44
2022/03/18 07:11:13;;;;;;;;;;;20.20;39.60;;;;;;5064080;28;20337;-47
2022/03/18 07:13:40;;;;;;;;;;;20.20;39.60;;;;;;5068649;28;20254;-43
2022/03/18 07:18:53;;;;;;;;;;;20.20;39.60;;;;;;5065806;28;19933;-43
2022/03/18 07:21:20;;;;;;;;;;;20.20;39.60;;;;;;5065719;28;19967;-43
2022/03/18 07:23:47;;;;;;;;;;;20.20;39.60;;;;;;5066948;28;19921;-49
2022/03/18 07:26:14;;;;;;;;;;;20.20;39.60;;;;;;5066545;28;20150;-43
2022/03/18 07:28:40;;;;;;;;;;;20.20;39.60;;;;;;5064213;28;19920;-45
2022/03/18 07:31:09;;;;;;;;;;;20.20;39.60;;;;;;5066662;28;20166;-43
2022/03/18 07:33:36;;;;;;;;;;;20.20;39.60;;;;;;5070678;28;19920;-45
2022/03/18 07:36:03;;;;;;;;;;;20.20;39.60;;;;;;5067558;28;20362;-44
2022/03/18 07:38:29;;;;;;;;;;;20.20;39.60;;;;;;5069232;28;19990;-44
2022/03/18 07:40:56;;;;;;;;;;;20.20;39.60;;;;;;5067966;28;20015;-43
2022/03/18 07:43:23;;;;;;;;;;;20.20;39.60;;;;;;5067344;28;20016;-43
2022/03/18 07:45:50;;;;;;;;;;;20.20;39.60;;;;;;5070687;28;19967;-44
2022/03/18 07:48:18;;;;;;;;;;;20.20;39.60;;;;;;5070195;28;20010;-44
2022/03/18 07:50:45;;;;;;;;;;;20.20;39.60;;;;;;5066657;28;20301;-43
2022/03/18 07:53:12;;;;;;;;;;;20.20;39.60;;;;;;5070783;28;19925;-46
2022/03/18 07:55:40;;;;;;;;;;;20.20;39.60;;;;;;5067792;28;19943;-46
2022/03/18 07:58:08;;;;;;;;;;;20.20;39.60;;;;;;5071744;28;20020;-43
2022/03/18 08:00:34;;;;;;;;;;;20.20;39.60;;;;;;5065685;28;19940;-45
2022/03/18 08:03:01;;;;;;;;;;;20.20;39.60;;;;;;5067125;28;19921;-43
2022/03/18 08:05:29;;;;;;;;;;;20.20;39.60;;;;;;5065178;28;19944;-43
2022/03/18 08:07:56;;;;;;;;;;;20.20;39.60;;;;;;5067181;28;19920;-43
2022/03/18 08:10:22;;;;;;;;;;;20.20;39.70;;;;;;5065713;28;20028;-43
2022/03/18 08:12:49;;;;;;;;;;;20.20;39.70;;;;;;5082215;28;19929;-44
2022/03/18 08:15:18;;;;;;;;;;;20.20;39.60;;;;;;5063064;28;19927;-42
2022/03/18 08:17:45;;;;;;;;;;;20.20;39.70;;;;;;5063155;28;20020;-43
2022/03/18 08:20:13;;;;;;;;;;;20.20;39.60;;;;;;5064593;28;19925;-42
2022/03/18 08:22:41;;;;;;;;;;;20.20;39.60;;;;;;5071751;28;19931;-44
2022/03/18 08:25:08;;;;;;;;;;;20.20;39.60;;;;;;5092952;28;20348;-44
2022/03/18 08:27:35;;;;;;;;;;;20.20;39.70;;;;;;5062819;28;19921;-42
2022/03/18 08:30:02;;;;;;;;;;;20.20;39.70;;;;;;5099499;28;20376;-44
2022/03/18 08:32:29;;;;;;;;;;;20.20;39.70;;;;;;5065843;28;19955;-44
2022/03/18 08:34:56;;;;;;;;;;;20.20;39.80;;;;;;5066977;28;20706;-42
2022/03/18 08:40:05;;;;;;;;;;;20.20;39.80;;;;;;5093606;28;19928;-46
2022/03/18 08:42:32;;;;;;;;;;;20.20;39.80;;;;;;5067029;28;19929;-45
2022/03/18 08:44:59;;;;;;;;;;;20.30;39.90;;;;;;5058939;28;19920;-42
2022/03/18 08:47:25;;;;;;;;;;;20.20;39.70;;;;;;5063809;28;19943;-43
2022/03/18 08:49:52;;;;;;;;;;;20.20;39.60;;;;;;5060331;28;19920;-42
2022/03/18 08:52:19;;;;;;;;;;;20.20;39.60;;;;;;5063682;28;19927;-42
2022/03/18 08:54:46;;;;;;;;;;;20.20;39.60;;;;;;5066689;28;20094;-44
2022/03/18 08:57:14;;;;;;;;;;;20.20;39.60;;;;;;5064675;28;19924;-45
2022/03/18 08:59:41;;;;;;;;;;;20.30;39.70;;;;;;5066028;28;20369;-42
2022/03/18 09:02:08;;;;;;;;;;;20.20;39.60;;;;;;5063106;28;19933;-42
2022/03/18 09:04:35;;;;;;;;;;;20.20;39.70;;;;;;5082405;28;19924;-42
2022/03/18 09:07:02;;;;;;;;;;;20.20;39.60;;;;;;5067233;28;19954;-42
2022/03/18 09:09:28;;;;;;;;;;;20.20;39.60;;;;;;5066872;28;19924;-43
2022/03/18 09:11:55;;;;;;;;;;;20.30;39.80;;;;;;5065619;28;20047;-42
2022/03/18 09:14:23;;;;;;;;;;;20.20;39.70;;;;;;5065312;28;19924;-44
2022/03/18 09:16:53;;;;;;;;;;;20.20;39.70;;;;;;5066765;28;19921;-46
2022/03/18 09:19:20;;;;;;;;;;;20.20;39.70;;;;;;5066542;28;19927;-42
2022/03/18 09:21:46;;;;;;;;;;;20.20;39.70;;;;;;5066220;28;19924;-48
2022/03/18 09:24:13;;;;;;;;;;;20.20;39.70;;;;;;5059074;28;19972;-46
2022/03/18 09:26:40;;;;;;;;;;;20.20;39.70;;;;;;5068691;28;20373;-44
2022/03/18 09:29:09;;;;;;;;;;;20.20;39.70;;;;;;5063773;28;19979;-44
2022/03/18 09:31:37;;;;;;;;;;;20.20;39.70;;;;;;5071092;28;19924;-45
2022/03/18 09:34:04;;;;;;;;;;;20.20;39.70;;;;;;5067508;28;19920;-45
2022/03/18 09:36:31;;;;;;;;;;;20.20;39.60;;;;;;5063851;28;20350;-43
2022/03/18 09:38:58;;;;;;;;;;;20.20;39.60;;;;;;5064642;28;20324;-45
2022/03/18 09:41:25;;;;;;;;;;;20.20;39.60;;;;;;5061007;28;19920;-49
2022/03/18 09:43:52;;;;;;;;;;;20.20;39.50;;;;;;5062177;28;20018;-43
2022/03/18 09:46:19;;;;;;;;;;;20.20;39.40;;;;;;5065464;28;19978;-44
2022/03/18 09:48:47;;;;;;;;;;;20.20;39.30;;;;;;5067315;28;19955;-43
2022/03/18 09:51:15;;;;;;;;;;;20.20;39.20;;;;;;5059765;28;20388;-46
2022/03/18 09:53:42;;;;;;;;;;;20.20;39.10;;;;;;5061362;28;19972;-48
2022/03/18 09:56:08;;;;;;;;;;;20.20;39.00;;;;;;5058756;28;19932;-42
2022/03/18 09:58:35;;;;;;;;;;;20.20;39.00;;;;;;5065049;28;20384;-46
2022/03/18 10:01:02;;;;;;;;;;;20.20;39.00;;;;;;5063869;28;19978;-44
2022/03/18 10:03:36;;;;;;;;;;;20.20;39.00;;;;;;5064411;28;19921;-45
2022/03/18 10:06:04;;;;;;;;;;;20.20;39.00;;;;;;5059884;28;19920;-45
2022/03/18 10:08:46;;;;;;;;;;;20.10;38.90;;;;;;5064946;28;19920;-44
2022/03/18 10:11:13;;;;;;;;;;;20.20;39.00;;;;;;5065302;28;19960;-47
2022/03/18 10:13:49;;;;;;;;;;;20.10;39.00;;;;;;5065966;28;20269;-45
2022/03/18 10:16:17;;;;;;;;;;;20.20;39.10;;;;;;5067217;28;20011;-42
2022/03/18 10:18:48;;;;;;;;;;;20.10;39.00;;;;;;5066210;28;19966;-44
2022/03/18 10:21:16;;;;;;;;;;;20.10;39.00;;;;;;5065643;28;19935;-44
2022/03/18 10:23:44;;;;;;;;;;;20.20;39.10;;;;;;5062918;28;20027;-44
2022/03/18 10:26:10;;;;;;;;;;;20.20;39.10;;;;;;5066158;28;19920;-43
2022/03/18 10:28:39;;;;;;;;;;;20.20;39.10;;;;;;5065177;28;20362;-45
2022/03/18 10:31:10;;;;;;;;;;;20.20;39.10;;;;;;5061890;28;19928;-42
2022/03/18 10:37:04;;;;;;;;;;;20.20;39.20;;;;;;5064752;28;19929;-44
2022/03/18 10:39:21;;;;;;;;;;;20.20;39.20;;;;;;5065280;28;19924;-43
2022/03/18 10:41:48;;;;;;;;;;;20.20;39.20;;;;;;5062750;28;20324;-44
2022/03/18 10:44:17;;;;;;;;;;;20.20;39.20;;;;;;5087414;28;19924;-44
2022/03/18 10:46:43;;;;;;;;;;;20.20;39.20;;;;;;5094084;28;19944;-43
2022/03/18 10:49:11;;;;;;;;;;;20.20;39.20;;;;;;5064455;28;19928;-43
2022/03/18 10:51:39;;;;;;;;;;;20.20;39.20;;;;;;5065951;28;19927;-42
2022/03/18 10:54:06;;;;;;;;;;;20.20;39.20;;;;;;5064078;28;19920;-42
2022/03/18 10:56:48;;;;;;;;;;;20.20;39.20;;;;;;5067832;28;19921;-44
2022/03/18 10:59:17;;;;;;;;;;;20.20;39.20;;;;;;5063499;28;20386;-42
2022/03/18 11:01:43;;;;;;;;;;;20.20;39.20;;;;;;5096795;28;19947;-50
2022/03/18 11:04:10;;;;;;;;;;;20.20;39.20;;;;;;5066274;28;19947;-44
2022/03/18 11:06:37;;;;;;;;;;;20.20;39.20;;;;;;5084768;28;19947;-42
2022/03/18 11:09:05;;;;;;;;;;;20.20;39.20;;;;;;5087925;28;19974;-43
2022/03/18 11:11:31;;;;;;;;;;;20.20;39.30;;;;;;5071452;28;20333;-43
2022/03/18 11:14:00;;;;;;;;;;;20.20;39.20;;;;;;5070194;28;20382;-46
2022/03/18 11:16:28;;;;;;;;;;;20.20;39.20;;;;;;5064696;28;20180;-45
2022/03/18 11:18:56;;;;;;;;;;;20.20;39.20;;;;;;5060803;28;19928;-43
2022/03/18 11:21:25;;;;;;;;;;;20.20;39.20;;;;;;5069612;28;19929;-43
2022/03/18 11:23:55;;;;;;;;;;;20.20;39.20;;;;;;5103511;28;19920;-43
2022/03/18 11:26:23;;;;;;;;;;;20.20;39.30;;;;;;5087923;28;19920;-44
2022/03/18 11:29:05;;;;;;;;;;;20.20;39.20;;;;;;5069726;28;20401;-43
2022/03/18 11:31:33;;;;;;;;;;;20.20;39.30;;;;;;5066858;28;19921;-47
2022/03/18 11:34:10;;;;;;;;;;;20.20;39.30;;;;;;5068012;28;19970;-47
2022/03/18 11:36:37;;;;;;;;;;;20.20;39.30;;;;;;5057884;28;19921;-43
2022/03/18 11:39:06;;;;;;;;;;;20.20;39.30;;;;;;5070017;28;20023;-45
2022/03/18 11:41:47;;;;;;;;;;;20.20;39.30;;;;;;5065081;28;19944;-47
2022/03/18 11:44:29;;;;;;;;;;;20.20;39.30;;;;;;5067879;28;19952;-43
2022/03/18 11:46:55;;;;;;;;;;;20.20;39.30;;;;;;5074194;28;19970;-46
2022/03/18 11:49:34;;;;;;;;;;;20.20;39.30;;;;;;5068104;28;20365;-43
2022/03/18 11:52:00;;;;;;;;;;;20.20;39.90;;;;;;5065963;28;20209;-46
2022/03/18 11:54:34;;;;;;;;;;;20.20;39.30;;;;;;5069285;28;19990;-43
2022/03/18 11:57:05;;;;;;;;;;;20.20;39.30;;;;;;5070555;28;20296;-43
2022/03/18 11:59:46;;;;;;;;;;;20.20;39.30;;;;;;5071633;28;19921;-44
2022/03/18 12:02:13;;;;;;;;;;;20.20;39.30;;;;;;5065490;28;19929;-45
2022/03/18 12:04:42;;;;;;;;;;;20.20;39.30;;;;;;5069028;28;19993;-45
2022/03/18 12:07:12;;;;;;;;;;;20.20;39.30;;;;;;5068793;28;19920;-42
2022/03/18 12:09:51;;;;;;;;;;;20.20;39.30;;;;;;5067988;28;20023;-44
2022/03/18 12:12:20;;;;;;;;;;;20.20;39.30;;;;;;5066875;28;19977;-44
2022/03/18 12:14:49;;;;;;;;;;;20.20;39.30;;;;;;5083311;28;19932;-43
2022/03/18 12:17:16;;;;;;;;;;;20.30;39.30;;;;;;5049467;28;19921;-43
2022/03/18 12:19:47;;;;;;;;;;;20.20;39.30;;;;;;5066703;28;19952;-45
2022/03/18 12:22:14;;;;;;;;;;;20.30;39.30;;;;;;5067175;28;20343;-45
2022/03/18 12:24:41;;;;;;;;;;;20.30;39.30;;;;;;5101025;28;20007;-43
2022/03/18 12:27:08;;;;;;;;;;;20.30;39.40;;;;;;5067272;28;19920;-44
2022/03/18 12:29:36;;;;;;;;;;;20.30;39.40;;;;;;5066834;28;19982;-46
2022/03/18 12:32:03;;;;;;;;;;;20.30;39.40;;;;;;5063078;28;19927;-45
2022/03/18 12:34:33;;;;;;;;;;;20.30;39.40;;;;;;5064862;28;19975;-42
2022/03/18 12:37:01;;;;;;;;;;;20.30;39.40;;;;;;5061061;28;19920;-46
2022/03/18 12:39:28;;;;;;;;;;;20.30;39.40;;;;;;5070822;28;20362;-44
2022/03/18 12:42:05;;;;;;;;;;;20.30;39.40;;;;;;5092284;28;19921;-47
2022/03/18 12:44:32;;;;;;;;;;;20.30;39.40;;;;;;5066399;28;19920;-48
2022/03/18 12:47:01;;;;;;;;;;;20.30;39.40;;;;;;5063021;28;19920;-44
2022/03/18 12:49:31;;;;;;;;;;;20.30;39.40;;;;;;5066638;28;19940;-43
2022/03/18 12:51:59;;;;;;;;;;;20.30;39.40;;;;;;5065051;28;20313;-44
2022/03/18 12:54:25;;;;;;;;;;;20.30;39.40;;;;;;5062291;28;20346;-46
2022/03/18 12:56:52;;;;;;;;;;;20.30;39.30;;;;;;5065744;28;20024;-45
2022/03/18 12:59:20;;;;;;;;;;;20.30;39.40;;;;;;5068490;28;19934;-43
2022/03/18 13:01:51;;;;;;;;;;;20.30;39.40;;;;;;5067148;28;20003;-46
2022/03/18 13:04:20;;;;;;;;;;;20.30;39.40;;;;;;5065985;28;20019;-46
2022/03/18 13:06:48;;;;;;;;;;;20.30;39.30;;;;;;5061137;28;20416;-46
2022/03/18 13:09:15;;;;;;;;;;;20.30;39.40;;;;;;5099912;28;19952;-42
2022/03/18 13:11:42;;;;;;;;;;;20.30;39.30;;;;;;5066126;28;19931;-45
2022/03/18 13:14:10;;;;;;;;;;;20.30;39.40;;;;;;5064697;28;19920;-43
2022/03/18 13:16:37;;;;;;;;;;;20.30;39.30;;;;;;5064655;28;20128;-43
2022/03/18 13:19:05;;;;;;;;;;;20.30;39.30;;;;;;5066715;28;19955;-45
2022/03/18 13:21:40;;;;;;;;;;;20.30;39.30;;;;;;5065664;28;19926;-49
2022/03/18 13:24:07;;;;;;;;;;;20.30;39.40;;;;;;5064844;28;19944;-49
2022/03/18 13:26:33;;;;;;;;;;;20.30;39.30;;;;;;5065980;28;20018;-43
2022/03/18 13:29:00;;;;;;;;;;;20.30;39.40;;;;;;5065878;28;19943;-47
2022/03/18 13:34:11;;;;;;;;;;;20.30;39.40;;;;;;5069659;28;20333;-46
2022/03/18 13:36:39;;;;;;;;;;;20.30;39.30;;;;;;5064799;28;20181;-43
2022/03/18 13:39:06;;;;;;;;;;;20.30;39.30;;;;;;5061365;28;19978;-46
2022/03/18 13:41:43;;;;;;;;;;;20.30;40.00;;;;;;5067437;28;19928;-46
2022/03/18 13:44:10;;;;;;;;;;;20.30;39.30;;;;;;5065426;28;19925;-44
2022/03/18 13:46:37;;;;;;;;;;;20.30;39.30;;;;;;5066446;28;19921;-49
2022/03/18 13:49:11;;;;;;;;;;;20.30;39.30;;;;;;5062288;28;19931;-46
2022/03/18 13:51:40;;;;;;;;;;;20.30;39.30;;;;;;5063937;28;19939;-45
2022/03/18 13:54:07;;;;;;;;;;;20.30;39.30;;;;;;5057606;28;19920;-44
2022/03/18 13:56:34;;;;;;;;;;;20.30;39.30;;;;;;5067307;28;19951;-44
2022/03/18 13:59:08;;;;;;;;;;;20.30;39.30;;;;;;5066122;28;19925;-45
2022/03/18 14:01:35;;;;;;;;;;;20.30;39.30;;;;;;5095065;28;20397;-46
2022/03/18 14:04:03;;;;;;;;;;;20.30;39.30;;;;;;5057702;28;19931;-46
2022/03/18 14:06:30;;;;;;;;;;;20.30;39.30;;;;;;5061675;28;19943;-45
2022/03/18 14:09:12;;;;;;;;;;;20.30;39.30;;;;;;5064471;28;19978;-47
2022/03/18 14:14:28;;;;;;;;;;;20.30;39.40;;;;;;5066058;28;20010;-44
2022/03/18 14:17:10;;;;;;;;;;;20.30;39.30;;;;;;5064182;28;20417;-45
2022/03/18 14:19:47;;;;;;;;;;;20.40;39.50;;;;;;5061935;28;20043;-46
2022/03/18 14:22:27;;;;;;;;;;;20.40;39.40;;;;;;5061539;28;19982;-42
2022/03/18 14:24:54;;;;;;;;;;;20.40;39.50;;;;;;5060952;28;20350;-46
2022/03/18 14:27:22;;;;;;;;;;;20.40;39.50;;;;;;5059541;28;19927;-48
2022/03/18 14:29:48;;;;;;;;;;;20.40;39.50;;;;;;5059644;28;19925;-42
2022/03/18 14:32:15;;;;;;;;;;;20.40;39.50;;;;;;5064410;28;19925;-44
2022/03/18 14:34:43;;;;;;;;;;;20.40;39.50;;;;;;5063541;28;20026;-42
2022/03/18 14:37:09;;;;;;;;;;;20.40;39.40;;;;;;5056726;28;20251;-46
2022/03/18 14:39:36;;;;;;;;;;;20.40;39.50;;;;;;5063836;28;20194;-44
2022/03/18 14:42:03;;;;;;;;;;;20.40;39.50;;;;;;5057770;28;20032;-43